createdAt,value
2019-06-20T00:01:00.292Z,21.37
2019-06-20T00:03:26.782Z,21.30
2019-06-20T00:05:53.343Z,21.21
2019-06-20T00:08:19.950Z,21.15
2019-06-20T00:10:46.763Z,21.07
2019-06-20T00:13:13.482Z,21.00
2019-06-20T00:15:41.043Z,20.94
2019-06-20T00:18:07.589Z,20.85
2019-06-20T00:20:34.221Z,20.63
2019-06-20T00:23:01.444Z,20.51
2019-06-20T00:25:28.057Z,20.43
2019-06-20T00:27:54.605Z,20.39
2019-06-20T00:30:21.463Z,20.38
2019-06-20T00:32:48.061Z,20.39
2019-06-20T00:35:14.737Z,20.37
2019-06-20T00:37:41.633Z,20.30
2019-06-20T00:40:08.408Z,20.26
2019-06-20T00:42:34.949Z,20.26
2019-06-20T00:45:01.633Z,20.19
2019-06-20T00:47:28.483Z,20.14
2019-06-20T00:49:55.012Z,20.11
2019-06-20T00:52:21.781Z,20.10
2019-06-20T00:54:48.698Z,20.07
2019-06-20T00:57:15.229Z,20.06
2019-06-20T00:59:41.714Z,20.05
2019-06-20T01:02:09.453Z,19.94
2019-06-20T01:04:35.938Z,19.83
2019-06-20T01:07:02.706Z,19.77
2019-06-20T01:09:29.208Z,19.71
2019-06-20T01:11:55.717Z,19.66
2019-06-20T01:14:22.199Z,19.56
2019-06-20T01:16:48.801Z,19.44
2019-06-20T01:19:15.258Z,19.33
2019-06-20T01:21:41.771Z,19.04
2019-06-20T01:24:08.251Z,18.68
2019-06-20T01:26:34.777Z,18.41
2019-06-20T01:29:01.551Z,18.35
2019-06-20T01:31:28.198Z,18.40
2019-06-20T01:33:54.721Z,18.46
2019-06-20T01:36:21.529Z,18.46
2019-06-20T01:38:48.070Z,18.46
2019-06-20T01:41:14.627Z,18.35
2019-06-20T01:43:50.460Z,18.29
2019-06-20T01:46:09.740Z,18.26
2019-06-20T01:48:36.629Z,18.22
2019-06-20T01:51:03.570Z,18.20
2019-06-20T01:53:30.269Z,18.25
2019-06-20T01:55:56.764Z,18.15
2019-06-20T01:58:23.299Z,18.08
2019-06-20T02:00:50.331Z,18.01
2019-06-20T02:03:18.243Z,17.96
2019-06-20T02:05:44.939Z,17.92
2019-06-20T02:08:11.616Z,17.92
2019-06-20T02:10:38.222Z,17.90
2019-06-20T02:13:05.063Z,17.93
2019-06-20T02:15:31.889Z,18.03
2019-06-20T02:17:59.015Z,18.10
2019-06-20T02:20:28.734Z,18.19
2019-06-20T02:22:55.537Z,18.29
2019-06-20T02:25:22.126Z,18.36
2019-06-20T02:27:49.352Z,18.42
2019-06-20T02:30:16.113Z,18.45
2019-06-20T02:35:08.161Z,18.52
2019-06-20T02:37:34.683Z,18.45
2019-06-20T02:40:01.473Z,18.49
2019-06-20T02:42:29.368Z,18.48
2019-06-20T02:44:55.864Z,18.40
2019-06-20T02:47:24.860Z,18.23
2019-06-20T02:49:51.536Z,18.16
2019-06-20T02:52:18.405Z,18.14
2019-06-20T02:54:44.884Z,18.15
2019-06-20T02:57:11.522Z,18.14
2019-06-20T02:59:38.033Z,18.13
2019-06-20T03:02:04.606Z,18.14
2019-06-20T03:04:31.234Z,18.03
2019-06-20T03:06:57.853Z,17.95
2019-06-20T03:09:24.416Z,18.06
2019-06-20T03:11:50.979Z,18.32
2019-06-20T03:14:17.497Z,18.62
2019-06-20T03:16:44.305Z,18.84
2019-06-20T03:19:10.836Z,18.99
2019-06-20T03:21:37.669Z,19.04
2019-06-20T03:24:04.268Z,18.98
2019-06-20T03:26:30.778Z,18.59
2019-06-20T03:28:58.375Z,17.96
2019-06-20T03:31:24.953Z,17.44
2019-06-20T03:33:51.868Z,17.19
2019-06-20T03:36:18.427Z,16.97
2019-06-20T03:38:44.966Z,16.72
2019-06-20T03:41:11.515Z,16.70
2019-06-20T03:43:38.060Z,16.69
2019-06-20T03:46:04.549Z,16.65
2019-06-20T03:48:31.098Z,16.66
2019-06-20T03:50:57.847Z,16.69
2019-06-20T03:53:24.546Z,16.69
2019-06-20T03:55:55.491Z,16.69
2019-06-20T03:58:22.022Z,16.68
2019-06-20T04:00:48.829Z,16.69
2019-06-20T04:03:15.924Z,16.73
2019-06-20T04:05:42.450Z,16.76
2019-06-20T04:08:09.006Z,16.76
2019-06-20T04:10:35.870Z,16.87
2019-06-20T04:13:02.456Z,16.86
2019-06-20T04:15:29.110Z,16.87
2019-06-20T04:17:55.900Z,16.91
2019-06-20T04:20:22.427Z,17.00
2019-06-20T04:22:48.957Z,17.03
2019-06-20T04:25:15.490Z,17.06
2019-06-20T04:27:42.482Z,17.12
2019-06-20T04:30:09.193Z,17.08
2019-06-20T04:32:35.779Z,17.09
2019-06-20T04:35:02.444Z,17.11
2019-06-20T04:37:29.174Z,17.19
2019-06-20T04:39:55.997Z,17.28
2019-06-20T04:42:28.371Z,17.38
2019-06-20T04:44:58.193Z,17.44
2019-06-20T04:47:24.713Z,17.44
2019-06-20T04:49:51.225Z,17.54
2019-06-20T04:52:17.695Z,17.61
2019-06-20T04:54:45.298Z,17.75
2019-06-20T04:57:11.805Z,17.84
2019-06-20T05:00:01.706Z,18.03
2019-06-20T05:02:34.754Z,18.18
2019-06-20T05:07:35.794Z,18.25
2019-06-20T05:10:03.277Z,18.24
2019-06-20T05:12:29.798Z,18.23
2019-06-20T05:14:56.286Z,18.33
2019-06-20T05:17:22.956Z,18.45
2019-06-20T05:19:49.448Z,18.64
2019-06-20T05:22:16.071Z,18.74
2019-06-20T05:24:42.590Z,18.80
2019-06-20T05:27:09.150Z,18.75
2019-06-20T05:29:35.665Z,18.84
2019-06-20T05:32:02.214Z,18.84
2019-06-20T05:34:28.897Z,18.91
2019-06-20T05:36:55.747Z,18.92
2019-06-20T05:39:22.490Z,18.93
2019-06-20T05:41:50.944Z,19.00
2019-06-20T05:44:17.721Z,19.13
2019-06-20T05:46:44.331Z,19.16
2019-06-20T05:49:10.885Z,19.23
2019-06-20T05:51:39.740Z,19.31
2019-06-20T05:54:06.023Z,19.32
2019-06-20T05:56:32.732Z,19.36
2019-06-20T05:58:59.236Z,19.32
2019-06-20T06:01:26.635Z,19.28
2019-06-20T06:03:53.415Z,19.24
2019-06-20T06:06:20.076Z,19.03
2019-06-20T06:08:46.652Z,18.93
2019-06-20T06:11:13.522Z,18.80
2019-06-20T06:13:40.278Z,18.80
2019-06-20T06:16:06.972Z,18.88
2019-06-20T06:18:33.458Z,18.88
2019-06-20T06:21:01.317Z,19.11
2019-06-20T06:23:28.968Z,19.75
2019-06-20T06:25:56.720Z,19.75
2019-06-20T06:28:23.432Z,20.11
2019-06-20T06:30:50.083Z,20.48
2019-06-20T06:33:16.741Z,20.88
2019-06-20T06:35:43.274Z,21.21
2019-06-20T06:38:10.092Z,21.60
2019-06-20T06:40:37.653Z,21.85
2019-06-20T06:43:04.631Z,22.08
2019-06-20T06:45:37.995Z,22.23
2019-06-20T06:48:09.840Z,22.54
2019-06-20T06:50:45.510Z,22.50
2019-06-20T06:53:12.352Z,22.05
2019-06-20T06:55:39.072Z,21.63
2019-06-20T06:58:06.705Z,21.36
2019-06-20T07:00:33.239Z,21.19
2019-06-20T07:02:59.771Z,21.15
2019-06-20T07:05:26.370Z,21.15
2019-06-20T07:07:55.203Z,21.00
2019-06-20T07:10:49.249Z,21.24
2019-06-20T07:13:15.897Z,21.67
2019-06-20T07:15:42.596Z,22.43
2019-06-20T07:18:10.183Z,22.53
2019-06-20T07:20:36.667Z,22.60
2019-06-20T07:23:03.318Z,22.56
2019-06-20T07:25:29.800Z,23.08
2019-06-20T07:27:56.482Z,23.37
2019-06-20T07:30:23.403Z,23.75
2019-06-20T07:32:49.865Z,24.23
2019-06-20T07:35:16.523Z,24.31
2019-06-20T07:37:43.171Z,24.63
2019-06-20T07:40:09.954Z,24.83
2019-06-20T07:42:36.778Z,24.29
2019-06-20T07:45:04.875Z,23.88
2019-06-20T07:47:31.647Z,23.87
2019-06-20T07:49:58.349Z,24.03
2019-06-20T07:52:25.237Z,23.74
2019-06-20T07:54:51.831Z,23.70
2019-06-20T07:57:18.414Z,23.63
2019-06-20T07:59:45.309Z,24.20
2019-06-20T08:02:11.994Z,24.69
2019-06-20T08:04:38.593Z,24.72
2019-06-20T08:07:05.206Z,24.26
2019-06-20T08:09:44.427Z,24.17
2019-06-20T08:12:00.292Z,24.12
2019-06-20T08:14:28.952Z,23.99
2019-06-20T08:16:55.466Z,23.90
2019-06-20T08:19:22.210Z,23.74
2019-06-20T08:21:49.869Z,23.86
2019-06-20T08:24:16.518Z,24.04
2019-06-20T08:26:43.179Z,24.55
2019-06-20T08:29:20.652Z,24.84
2019-06-20T08:31:41.068Z,24.98
2019-06-20T08:34:08.726Z,25.81
2019-06-20T08:36:35.230Z,26.08
2019-06-20T08:39:07.169Z,25.80
2019-06-20T08:41:33.687Z,25.64
2019-06-20T08:44:00.267Z,25.24
2019-06-20T08:46:27.581Z,24.87
2019-06-20T08:49:01.625Z,24.89
2019-06-20T08:51:28.527Z,24.63
2019-06-20T08:53:56.339Z,24.39
2019-06-20T08:56:23.654Z,24.58
2019-06-20T08:58:53.978Z,25.05
2019-06-20T09:01:21.225Z,25.28
2019-06-20T09:03:47.872Z,25.50
2019-06-20T09:06:14.957Z,25.60
2019-06-20T09:08:42.595Z,25.76
2019-06-20T09:11:09.128Z,26.47
2019-06-20T09:13:35.755Z,27.34
2019-06-20T09:16:03.049Z,27.42
2019-06-20T09:18:32.513Z,26.97
2019-06-20T09:21:00.335Z,27.05
2019-06-20T09:23:28.032Z,26.85
2019-06-20T09:25:55.939Z,26.74
2019-06-20T09:28:27.006Z,27.53
2019-06-20T09:30:55.130Z,27.87
2019-06-20T09:33:21.841Z,28.25
2019-06-20T09:35:48.353Z,28.40
2019-06-20T09:38:14.957Z,28.49
2019-06-20T09:40:41.994Z,28.80
2019-06-20T09:43:10.583Z,28.64
2019-06-20T09:45:37.381Z,28.52
2019-06-20T09:48:04.301Z,27.96
2019-06-20T09:50:30.913Z,28.15
2019-06-20T09:52:58.443Z,28.65
2019-06-20T09:55:24.993Z,29.15
2019-06-20T09:57:52.127Z,28.85
2019-06-20T10:00:19.294Z,29.00
2019-06-20T10:02:48.272Z,29.55
2019-06-20T10:05:14.351Z,29.57
2019-06-20T10:07:40.843Z,29.40
2019-06-20T10:10:09.121Z,29.62
2019-06-20T10:12:35.607Z,29.90
2019-06-20T10:15:02.198Z,29.27
2019-06-20T10:17:28.985Z,28.88
2019-06-20T10:19:56.329Z,28.00
2019-06-20T10:22:22.781Z,27.94
2019-06-20T10:24:49.608Z,27.70
2019-06-20T10:27:16.328Z,27.95
2019-06-20T10:29:42.818Z,27.84
2019-06-20T10:32:09.300Z,27.62
2019-06-20T10:34:36.200Z,28.18
2019-06-20T10:37:02.745Z,28.16
2019-06-20T10:39:29.294Z,28.16
2019-06-20T10:41:57.260Z,27.84
2019-06-20T10:44:23.862Z,27.80
2019-06-20T10:46:51.414Z,27.96
2019-06-20T10:49:19.162Z,27.90
2019-06-20T10:51:46.046Z,28.21
2019-06-20T10:54:12.677Z,27.76
2019-06-20T10:56:42.274Z,27.83
2019-06-20T10:59:10.267Z,28.14
2019-06-20T11:01:36.984Z,28.03
2019-06-20T11:04:03.865Z,27.99
2019-06-20T11:06:30.455Z,28.01
2019-06-20T11:08:57.133Z,27.90
2019-06-20T11:11:24.042Z,27.86
2019-06-20T11:13:50.642Z,28.32
2019-06-20T11:16:17.216Z,28.94
2019-06-20T11:18:44.153Z,28.91
2019-06-20T11:21:10.681Z,28.60
2019-06-20T11:23:38.185Z,28.51
2019-06-20T11:26:07.210Z,28.15
2019-06-20T11:28:33.971Z,28.10
2019-06-20T11:31:00.930Z,27.93
2019-06-20T11:33:27.677Z,27.81
2019-06-20T11:35:54.220Z,28.07
2019-06-20T11:38:21.010Z,27.76
2019-06-20T11:40:48.200Z,28.61
2019-06-20T11:43:14.946Z,29.58
2019-06-20T11:45:43.010Z,30.25
2019-06-20T11:48:09.682Z,29.88
2019-06-20T11:50:37.918Z,30.19
2019-06-20T11:53:04.663Z,29.92
2019-06-20T11:55:31.333Z,29.70
2019-06-20T11:58:00.325Z,29.80
2019-06-20T12:00:27.399Z,29.48
2019-06-20T12:02:54.057Z,29.59
2019-06-20T12:05:21.432Z,29.73
2019-06-20T12:07:49.803Z,29.79
2019-06-20T12:10:18.825Z,29.55
2019-06-20T12:12:46.805Z,29.31
2019-06-20T12:15:15.135Z,29.10
2019-06-20T12:17:43.261Z,28.76
2019-06-20T12:20:10.601Z,28.93
2019-06-20T12:22:38.312Z,29.34
2019-06-20T12:25:06.822Z,29.75
2019-06-20T12:27:36.001Z,30.05
2019-06-20T12:30:03.397Z,30.15
2019-06-20T12:32:30.205Z,29.55
2019-06-20T12:34:56.703Z,29.20
2019-06-20T12:37:23.283Z,28.98
2019-06-20T12:39:50.117Z,28.85
2019-06-20T12:42:18.187Z,28.43
2019-06-20T12:44:46.121Z,28.51
2019-06-20T12:47:12.816Z,28.92
2019-06-20T12:49:40.202Z,29.71
2019-06-20T12:52:08.522Z,29.18
2019-06-20T12:54:36.413Z,29.68
2019-06-20T12:57:04.460Z,29.77
2019-06-20T12:59:31.225Z,29.20
2019-06-20T13:01:59.933Z,29.15
2019-06-20T13:04:26.415Z,29.08
2019-06-20T13:06:53.168Z,29.38
2019-06-20T13:09:21.383Z,28.98
2019-06-20T13:11:49.051Z,29.00
2019-06-20T13:14:15.942Z,28.80
2019-06-20T13:16:42.962Z,28.52
2019-06-20T13:19:09.716Z,28.40
2019-06-20T13:21:38.779Z,28.02
2019-06-20T13:24:06.299Z,28.17
2019-06-20T13:26:32.879Z,28.52
2019-06-20T13:29:04.011Z,28.45
2019-06-20T13:31:29.753Z,28.14
2019-06-20T13:33:56.372Z,27.73
2019-06-20T13:36:23.212Z,27.59
2019-06-20T13:38:49.731Z,27.55
2019-06-20T13:41:16.430Z,27.16
2019-06-20T13:43:44.806Z,27.14
2019-06-20T13:46:11.322Z,27.38
2019-06-20T13:48:38.952Z,27.88
2019-06-20T13:51:06.605Z,28.12
2019-06-20T13:53:33.458Z,27.89
2019-06-20T13:56:00.338Z,27.87
2019-06-20T13:58:26.927Z,27.84
2019-06-20T14:00:54.673Z,27.86
2019-06-20T14:03:21.988Z,28.50
2019-06-20T14:05:49.876Z,28.70
2019-06-20T14:08:20.867Z,28.88
2019-06-20T14:10:47.750Z,28.86
2019-06-20T14:13:19.132Z,28.13
2019-06-20T14:15:44.373Z,27.93
2019-06-20T14:18:11.484Z,27.74
2019-06-20T14:20:44.543Z,27.70
2019-06-20T14:23:11.537Z,27.46
2019-06-20T14:25:38.343Z,27.26
2019-06-20T14:28:05.072Z,27.23
2019-06-20T14:30:31.668Z,27.07
2019-06-20T14:32:58.414Z,27.17
2019-06-20T14:35:25.006Z,26.98
2019-06-20T14:37:52.209Z,26.81
2019-06-20T14:40:19.319Z,26.82
2019-06-20T14:42:46.000Z,26.66
2019-06-20T14:45:13.349Z,26.58
2019-06-20T14:47:40.193Z,26.62
2019-06-20T14:50:06.965Z,26.47
2019-06-20T14:52:33.590Z,26.54
2019-06-20T14:55:00.463Z,26.66
2019-06-20T14:57:28.075Z,26.85
2019-06-20T14:59:54.599Z,26.93
2019-06-20T15:02:21.140Z,27.02
2019-06-20T15:04:47.882Z,26.96
2019-06-20T15:07:14.434Z,26.56
2019-06-20T15:09:40.969Z,26.70
2019-06-20T15:12:07.556Z,26.66
2019-06-20T15:14:34.220Z,26.43
2019-06-20T15:17:00.836Z,26.54
2019-06-20T15:19:27.487Z,26.77
2019-06-20T15:21:54.295Z,26.98
2019-06-20T15:24:21.303Z,27.10
2019-06-20T15:26:49.434Z,27.79
2019-06-20T15:29:16.309Z,27.86
2019-06-20T15:31:43.897Z,28.03
2019-06-20T15:34:10.794Z,28.10
2019-06-20T15:36:37.329Z,28.09
2019-06-20T15:39:04.768Z,28.02
2019-06-20T15:41:31.768Z,27.92
2019-06-20T15:43:58.812Z,27.90
2019-06-20T15:46:25.819Z,27.75
2019-06-20T15:48:52.411Z,27.91
2019-06-20T15:51:19.042Z,27.77
2019-06-20T15:53:45.897Z,27.63
2019-06-20T15:56:12.586Z,27.51
2019-06-20T15:58:39.088Z,27.14
2019-06-20T16:01:05.855Z,26.79
2019-06-20T16:03:32.514Z,26.58
2019-06-20T16:05:59.094Z,26.37
2019-06-20T16:08:26.219Z,26.25
2019-06-20T16:10:53.845Z,26.02
2019-06-20T16:13:20.556Z,25.99
2019-06-20T16:15:48.630Z,25.84
2019-06-20T16:18:15.114Z,25.83
2019-06-20T16:20:41.769Z,25.70
2019-06-20T16:23:08.489Z,25.53
2019-06-20T16:25:34.975Z,25.41
2019-06-20T16:28:01.778Z,25.51
2019-06-20T16:30:28.677Z,25.53
2019-06-20T16:32:58.257Z,25.49
2019-06-20T16:35:25.014Z,25.34
2019-06-20T16:37:51.815Z,24.99
2019-06-20T16:40:27.852Z,23.86
2019-06-20T16:42:54.385Z,21.91
2019-06-20T16:45:21.120Z,21.11
2019-06-20T16:47:47.668Z,20.80
2019-06-20T16:50:14.590Z,20.82
2019-06-20T16:52:42.168Z,20.84
2019-06-20T16:55:09.051Z,21.05
2019-06-20T16:57:35.747Z,21.26
2019-06-20T17:00:03.469Z,21.35
2019-06-20T17:02:30.153Z,21.21
2019-06-20T17:04:56.921Z,21.29
2019-06-20T17:07:24.751Z,21.42
2019-06-20T17:09:51.259Z,21.51
2019-06-20T17:12:17.932Z,21.50
2019-06-20T17:14:44.618Z,21.24
2019-06-20T17:17:11.459Z,21.10
2019-06-20T17:19:41.958Z,21.13
2019-06-20T17:22:06.615Z,21.14
2019-06-20T17:24:33.129Z,21.12
2019-06-20T17:26:59.749Z,21.13
2019-06-20T17:29:28.566Z,21.00
2019-06-20T17:31:57.394Z,21.04
2019-06-20T17:34:23.927Z,20.92
2019-06-20T17:36:50.551Z,20.74
2019-06-20T17:39:17.102Z,20.66
2019-06-20T17:41:54.924Z,20.74
2019-06-20T17:44:12.178Z,20.51
2019-06-20T17:46:39.000Z,19.63
2019-06-20T17:49:05.579Z,18.74
2019-06-20T17:51:33.106Z,18.53
2019-06-20T17:54:00.050Z,18.41
2019-06-20T17:56:26.526Z,18.48
2019-06-20T17:58:53.183Z,18.57
2019-06-20T18:01:24.096Z,18.72
2019-06-20T18:03:50.654Z,18.70
2019-06-20T18:06:17.209Z,18.51
2019-06-20T18:08:43.712Z,18.51
2019-06-20T18:11:10.263Z,18.28
2019-06-20T18:13:36.912Z,18.22
2019-06-20T18:16:03.625Z,18.33
2019-06-20T18:18:30.757Z,18.42
2019-06-20T18:20:57.323Z,18.42
2019-06-20T18:23:24.244Z,18.37
2019-06-20T18:25:55.229Z,18.37
2019-06-20T18:28:21.781Z,18.37
2019-06-20T18:30:48.482Z,18.48
2019-06-20T18:33:15.154Z,18.51
2019-06-20T18:35:41.777Z,18.39
2019-06-20T18:38:08.438Z,18.39
2019-06-20T18:40:35.001Z,18.19
2019-06-20T18:43:01.778Z,18.06
2019-06-20T18:45:28.793Z,17.93
2019-06-20T18:47:56.371Z,17.83
2019-06-20T18:50:23.014Z,17.77
2019-06-20T18:52:52.617Z,17.76
2019-06-20T18:55:18.155Z,17.52
2019-06-20T18:57:45.573Z,17.44
2019-06-20T19:00:14.293Z,17.35
2019-06-20T19:02:40.972Z,17.36
2019-06-20T19:05:07.580Z,17.36
2019-06-20T19:07:34.199Z,17.32
2019-06-20T19:10:02.225Z,17.37
2019-06-20T19:12:29.464Z,17.57
2019-06-20T19:14:55.975Z,17.57
2019-06-20T19:17:22.634Z,17.57
2019-06-20T19:19:49.277Z,17.63
2019-06-20T19:22:16.915Z,17.75
2019-06-20T19:24:43.668Z,17.90
2019-06-20T19:27:12.735Z,17.98
2019-06-20T19:29:39.573Z,18.01
2019-06-20T19:32:06.175Z,18.03
2019-06-20T19:34:32.937Z,18.04
2019-06-20T19:36:59.469Z,17.97
2019-06-20T19:39:25.962Z,18.04
2019-06-20T19:41:58.423Z,18.07
2019-06-20T19:44:25.079Z,18.12
2019-06-20T19:46:51.641Z,18.13
2019-06-20T19:49:18.144Z,18.03
2019-06-20T19:51:45.163Z,18.03
2019-06-20T19:54:11.685Z,17.97
2019-06-20T19:56:38.199Z,17.98
2019-06-20T19:59:05.849Z,17.93
2019-06-20T20:01:34.415Z,17.83
2019-06-20T20:04:01.224Z,17.85
2019-06-20T20:06:27.966Z,17.79
2019-06-20T20:08:54.664Z,17.85
2019-06-20T20:11:21.888Z,17.72
2019-06-20T20:13:48.556Z,17.70
2019-06-20T20:16:15.028Z,17.75
2019-06-20T20:18:42.599Z,17.65
2019-06-20T20:21:09.939Z,17.54
2019-06-20T20:23:36.832Z,17.42
2019-06-20T20:26:03.649Z,17.32
2019-06-20T20:28:30.359Z,17.25
2019-06-20T20:30:57.210Z,17.20
2019-06-20T20:33:23.891Z,17.12
2019-06-20T20:35:50.609Z,17.01
2019-06-20T20:38:17.385Z,17.01
2019-06-20T20:40:44.169Z,17.01
2019-06-20T20:43:11.166Z,17.03
2019-06-20T20:45:37.743Z,17.04
2019-06-20T20:48:04.464Z,17.07
2019-06-20T20:50:30.972Z,17.15
2019-06-20T20:52:57.484Z,17.17
2019-06-20T20:55:25.142Z,17.11
2019-06-20T20:57:52.713Z,17.04
2019-06-20T21:00:23.094Z,16.93
2019-06-20T21:02:49.921Z,16.83
2019-06-20T21:05:16.484Z,16.72
2019-06-20T21:07:42.976Z,16.58
2019-06-20T21:10:10.851Z,16.48
2019-06-20T21:12:37.356Z,16.41
2019-06-20T21:15:04.139Z,16.38
2019-06-20T21:17:30.608Z,16.32
2019-06-20T21:19:57.402Z,16.30
2019-06-20T21:22:24.074Z,16.26
2019-06-20T21:24:50.657Z,16.21
2019-06-20T21:27:17.128Z,16.22
2019-06-20T21:29:43.705Z,16.20
2019-06-20T21:32:10.193Z,16.13
2019-06-20T21:34:36.792Z,16.12
2019-06-20T21:37:03.409Z,16.12
2019-06-20T21:39:29.973Z,16.11
2019-06-20T21:41:56.496Z,16.12
2019-06-20T21:44:23.114Z,16.11
2019-06-20T21:46:49.812Z,16.09
2019-06-20T21:49:16.419Z,15.96
2019-06-20T21:51:44.836Z,15.88
2019-06-20T21:54:11.354Z,15.77
2019-06-20T21:56:37.821Z,15.62
2019-06-20T21:59:04.555Z,15.63
2019-06-20T22:01:31.147Z,15.67
2019-06-20T22:03:57.776Z,15.67
2019-06-20T22:06:24.480Z,15.63
2019-06-20T22:08:51.147Z,15.50
2019-06-20T22:11:18.833Z,15.45
2019-06-20T22:13:48.359Z,15.38
2019-06-20T22:16:15.142Z,15.36
2019-06-20T22:18:41.704Z,15.33
2019-06-20T22:21:08.408Z,15.34
2019-06-20T22:23:39.447Z,15.31
2019-06-20T22:26:06.092Z,15.38
2019-06-20T22:28:33.118Z,15.38
2019-06-20T22:31:01.617Z,15.40
2019-06-20T22:33:28.538Z,15.44
2019-06-20T22:35:55.149Z,15.49
2019-06-20T22:38:21.889Z,15.45
2019-06-20T22:40:48.380Z,15.38
2019-06-20T22:43:15.036Z,15.37
2019-06-20T22:45:42.241Z,15.38
2019-06-20T22:48:08.886Z,15.35
2019-06-20T22:50:35.370Z,15.34
2019-06-20T22:53:01.905Z,15.31
2019-06-20T22:55:28.444Z,15.24
2019-06-20T22:57:54.971Z,15.14
2019-06-20T23:00:21.776Z,15.08
2019-06-20T23:02:48.310Z,15.02
2019-06-20T23:05:14.791Z,14.97
2019-06-20T23:07:42.468Z,14.84
2019-06-20T23:10:11.019Z,14.75
2019-06-20T23:12:37.914Z,14.67
2019-06-20T23:15:04.690Z,14.61
2019-06-20T23:17:31.295Z,14.57
2019-06-20T23:19:57.829Z,14.61
2019-06-20T23:22:24.595Z,14.70
2019-06-20T23:24:51.156Z,14.76
2019-06-20T23:27:17.721Z,14.88
2019-06-20T23:29:44.454Z,14.99
2019-06-20T23:32:10.977Z,15.06
2019-06-20T23:34:37.495Z,15.13
2019-06-20T23:37:12.610Z,15.18
2019-06-20T23:39:32.532Z,15.19
2019-06-20T23:41:59.038Z,15.21
2019-06-20T23:44:25.532Z,15.21
2019-06-20T23:46:52.113Z,15.21
2019-06-20T23:49:18.587Z,15.25
2019-06-20T23:51:51.220Z,15.29
2019-06-20T23:54:17.742Z,15.29
2019-06-20T23:56:45.318Z,15.32
2019-06-20T23:59:11.859Z,15.36
